T3 5K

Overall Finish List

August 01, 2015


Results By Pro-Fit Event Services LLC - Belton, TX Pro-Fit Event Services LLC

5K

Place Name City Bib No Age Gender Age Group Total Time Pace
1 Jordan Hernandez Temple TX 304 29 M 1 Top Fin 18:32.4 5:59/M
2 Juan Gutierrez Temple TX 337 42 M 1 40-44 20:57.2 6:46/M
3 Chris Chaput Temple TX 335 42 M 2 40-44 21:40.0 7:00/M
4 Annmarie Housen Temple TX 320 45 F 1 Top Fin 21:41.0 7:01/M
5 Roxana Carr Killeen TX 360 32 F 1 30-34 22:25.9 7:15/M
6 Kim Le Temple TX 323 28 F 1 25-29 23:26.0 7:34/M
7 Angel Ortiz Jr Belton TX 313 33 M 1 30-34 24:20.3 7:55/M
8 Susana Wolfe Temple TX 333 25 F 2 25-29 25:10.2 8:09/M
9 Terri Carter 355 50 F 1 50-54 25:15.6 8:11/M
10 Ben Cornette Belton TX 322 12 M 1 10-14 25:54.6 8:22/M
11 Jim Cornette 336 52 M 1 50-54 26:05.8 8:26/M
12 Callie Poncik Holland TX 340 24 F 1 20-24 26:10.6 8:28/M
13 Tom Davis Belton TX 303 56 M 1 55-59 27:17.6 8:49/M
14 Taylor Gurnett Belton 348 14 F 1 10-14 27:47.5 8:58/M
15 Amber Culver Temple TX 312 26 F 3 25-29 28:10.2 9:07/M
16 Susan Cornette Belton TX 321 48 F 1 45-49 28:34.8 9:15/M
17 Holly Lamberte 342 43 F 1 40-44 28:40.9 9:16/M
18 Yane Trevino 362 30 F 2 30-34 29:38.6 9:38/M
19 Chuck Emerson Temple TX 329 59 M 2 55-59 29:40.6 9:38/M
20 Thea Lancaster Belton TX 351 13 F 2 10-14 29:40.7 9:35/M
21 Briana Brenek Temple TX 317 31 F 3 30-34 29:44.0 9:38/M
22 Susan Higgins Temple TX 338 42 F 2 40-44 29:44.9 9:38/M
23 Sarah Crawford 365 31 F 4 30-34 30:55.5 10:03/M
24 Alejandra Munoz Temple TX 315 21 F 2 20-24 31:05.6 10:03/M
25 Rita Sharp 343 54 F 2 50-54 31:20.8 10:08/M
26 Kennedy Mayo Belton TX 332 15 F 1 15-19 32:25.2 10:29/M
27 Jessica Byers Temple TX 328 25 F 4 25-29 32:26.4 10:31/M
28 Rosalinda Cordova Belton TX 358 33 F 5 30-34 32:54.4 10:41/M
29 Shaw Isaac 367 34 M 2 30-34 34:02.7 11:01/M
30 Rick Graham 368 33 M 3 30-34 34:02.8 11:02/M
31 Alyson Bishoff 352 18 F 2 15-19 34:32.7 11:11/M
32 Emilie Lapioli Killeen TX 364 30 F 6 30-34 34:48.5 11:18/M
33 Dora Ortiz Belton TX 314 37 F 1 35-39 34:53.3 11:20/M
34 Lisa Bishoff 353 46 F 2 45-49 35:07.1 11:23/M
35 Kim Wiley 357 46 F 3 45-49 35:07.9 11:24/M
36 Katherine Maples 363 26 F 5 25-29 35:12.9 11:25/M
37 Amy Mayo Belton TX 331 49 F 4 45-49 36:45.8 11:54/M
38 Mickelle Guthrie 361 38 F 2 35-39 36:48.0 11:55/M
39 Angenette Burns Temple TX 324 48 F 5 45-49 37:16.1 12:03/M
40 Jennifer Decker Nolanville TX 318 31 F 7 30-34 37:42.8 12:11/M
41 Cooper English Temple TX 350 7 M 1 1- 9 37:43.1 12:11/M
42 Mason Decker Nolanville TX 319 7 M 2 1- 9 37:44.1 12:11/M
43 Emily Jarratt 366 21 F 3 20-24 37:46.9 12:15/M
44 Kyla Albers 354 54 F 3 50-54 38:15.7 12:24/M
45 Dorothy Payne Belton TX 341 46 F 6 45-49 39:10.6 12:39/M
46 Carol Emerson 346 40 F 3 40-44 40:39.3 13:11/M
47 Monique Robinson Temple TX 325 51 F 4 50-54 40:52.6 13:14/M
48 William Gibson Harker Heights TX 359 56 M 3 55-59 41:24.1 13:26/M
49 Alexandria Hardy Webster TX 305 34 F 8 30-34 44:07.0 14:19/M
50 Misty Williford Temple TX 302 37 F 3 35-39 44:15.4 14:22/M
51 Stephanie Chase 347 28 F 6 25-29 44:15.5 14:22/M
52 Karyn McGee 356 33 F 9 30-34 47:22.7 15:20/M
53 Margaret Burns Temple TX 311 43 F 4 40-44 47:40.4 15:28/M
54 Dwayne McIntyer Temple TX 326 45 M 1 45-49 48:05.8 15:34/M
55 Tanya Walker Temple TX 327 47 F 7 45-49 49:03.1 15:52/M
56 Rebekah Jarratt Temple TX 334 54 F 5 50-54 50:05.4 16:14/M
57 Becca Briggs 345 34 F 10 30-34 51:00.0 16:27/M
58 Stan Briggs 344 41 M 3 40-44 51:10.0 16:30/M
59 Marta Cabrera Belton TX 306 50 F 6 50-54 52:01.4 16:50/M
60 Stacey McAnulty Gatesville TX 307 35 F 4 35-39 58:56.0 19:03/M